Time;durP1;ratioP1;P1;durP2;ratioP2;P2;SDS_P1;SDS_P2;PMS_P1;PMS_P2;Temp;Humidity;BMP_temperature;BMP_pressure;BME280_temperature;BME280_humidity;BME280_pressure;Samples;Min_cycle;Max_cycle;Signal;HPM_P1;HPM_P2
2022/11/18 00:01:50;;;;;;;39.77;17.83;;;;;;;-0.25;100.00;99797.73;5065631;55;1141015;-81
2022/11/18 00:06:56;;;;;;;32.93;19.53;;;;;;;-0.19;100.00;99802.22;5065393;56;1140960;-81
2022/11/18 00:17:24;;;;;;;23.57;14.90;;;;;;;-0.08;100.00;99796.07;5096624;56;1141051;-80
2022/11/18 00:22:30;;;;;;;28.77;16.67;;;;;;;-0.01;100.00;99804.45;5070988;56;1141193;-81
2022/11/18 00:27:36;;;;;;;28.02;17.17;;;;;;;0.04;100.00;99802.91;5057509;56;1140975;-81
2022/11/18 00:32:41;;;;;;;29.32;16.40;;;;;;;0.08;100.00;99801.87;5069769;55;1139063;-81
2022/11/18 00:37:48;;;;;;;28.43;16.70;;;;;;;0.12;100.00;99799.06;5055593;56;1138910;-80
2022/11/18 00:42:55;;;;;;;29.70;16.60;;;;;;;0.13;100.00;99809.85;5100599;56;1138904;-81
2022/11/18 00:48:02;;;;;;;27.77;16.97;;;;;;;0.15;100.00;99805.88;5073305;56;1139021;-81
2022/11/18 00:53:08;;;;;;;26.27;14.50;;;;;;;0.15;100.00;99808.03;5121924;56;1139288;-81
2022/11/18 00:58:13;;;;;;;21.20;14.00;;;;;;;0.04;100.00;99808.95;5121438;56;1138980;-81
2022/11/18 01:03:20;;;;;;;35.80;16.03;;;;;;;-0.02;100.00;99819.66;5121108;56;1139390;-81
2022/11/18 01:08:26;;;;;;;29.07;18.65;;;;;;;-0.08;100.00;99822.06;5056349;56;1140994;-81
2022/11/18 01:13:32;;;;;;;28.70;15.87;;;;;;;-0.14;100.00;99801.98;5057566;55;1141110;-81
2022/11/18 01:18:38;;;;;;;27.50;16.80;;;;;;;-0.12;100.00;99802.77;5097873;55;1141024;-81
2022/11/18 01:23:45;;;;;;;35.57;19.43;;;;;;;-0.08;100.00;99803.02;5121697;54;1141069;-80
2022/11/18 01:28:52;;;;;;;34.07;18.30;;;;;;;-0.11;100.00;99802.70;5121873;54;1140792;-81
2022/11/18 01:33:58;;;;;;;33.30;19.37;;;;;;;-0.20;100.00;99805.73;5088191;55;1244948;-81
2022/11/18 01:39:04;;;;;;;46.03;17.87;;;;;;;-0.33;100.00;99818.04;5121063;55;1140948;-79
2022/11/18 01:45:01;;;;;;;37.93;17.87;;;;;;;-0.47;100.00;99816.90;5121538;55;1141007;-80
2022/11/18 01:50:08;;;;;;;26.77;13.17;;;;;;;-0.69;100.00;99815.28;5121138;54;1140880;-79
2022/11/18 01:55:18;;;;;;;29.87;16.97;;;;;;;-0.97;100.00;99807.82;5120636;56;1140852;-77
2022/11/18 02:00:24;;;;;;;42.50;18.33;;;;;;;-1.10;100.00;99816.13;5083127;56;1141011;-79
2022/11/18 02:05:32;;;;;;;39.10;20.27;;;;;;;-1.24;100.00;99815.84;5046018;57;1140887;-80
2022/11/18 02:10:38;;;;;;;42.23;20.10;;;;;;;-1.30;100.00;99822.56;5096696;56;1141015;-79
2022/11/18 02:15:57;;;;;;;38.23;20.97;;;;;;;-1.26;100.00;99817.66;5024346;56;1141324;-78
2022/11/18 02:21:29;;;;;;;42.70;21.43;;;;;;;-1.21;100.00;99813.09;5116606;55;1141064;-79
2022/11/18 02:26:53;;;;;;;38.02;19.25;;;;;;;-1.12;100.00;99809.30;5089003;55;1141387;-79
2022/11/18 02:32:05;;;;;;;43.33;21.25;;;;;;;-1.06;100.00;99808.58;5081523;55;1141258;-79
2022/11/18 02:37:38;;;;;;;38.73;16.75;;;;;;;-1.10;100.00;99813.52;5131771;56;1140777;-79
2022/11/18 02:42:48;;;;;;;46.77;19.50;;;;;;;-1.20;100.00;99811.34;5126892;56;1141018;-78
2022/11/18 02:47:57;;;;;;;36.50;17.50;;;;;;;-1.23;100.00;99821.42;5132568;55;1141112;-79
2022/11/18 02:53:07;;;;;;;40.97;21.17;;;;;;;-1.27;100.00;99815.95;5143851;55;1140970;-81
2022/11/18 02:58:17;;;;;;;45.13;21.43;;;;;;;-1.25;100.00;99806.83;5052905;56;1141126;-81
2022/11/18 03:03:30;;;;;;;35.13;16.57;;;;;;;-1.27;100.00;99810.77;5055923;54;1141149;-80
2022/11/18 03:08:49;;;;;;;39.13;20.53;;;;;;;-1.31;100.00;99810.50;5053289;56;1140954;-81
2022/11/18 03:14:32;;;;;;;31.70;17.40;;;;;;;-1.31;100.00;99810.95;5013157;56;1140971;-81
2022/11/18 03:20:08;;;;;;;38.67;19.40;;;;;;;-1.25;100.00;99805.52;4969623;56;1141084;-81
2022/11/18 03:25:48;;;;;;;38.20;17.23;;;;;;;-1.22;100.00;99791.14;4969704;56;1140814;-81
2022/11/18 03:31:04;;;;;;;36.57;19.30;;;;;;;-1.20;100.00;99785.41;5030166;56;1140844;-81
2022/11/18 03:36:14;;;;;;;42.33;19.23;;;;;;;-1.14;100.00;99787.30;5058207;56;1141068;-80
2022/11/18 03:41:22;;;;;;;30.93;15.10;;;;;;;-1.16;100.00;99790.87;5058700;56;1141053;-81
2022/11/18 03:46:33;;;;;;;23.70;11.10;;;;;;;-1.16;100.00;99789.12;5059059;56;1141020;-79
2022/11/18 03:51:43;;;;;;;35.17;18.53;;;;;;;-1.14;100.00;99789.05;5065997;55;1140952;-79
2022/11/18 03:57:01;;;;;;;41.13;20.90;;;;;;;-1.11;100.00;99778.56;5101158;55;1140980;-79
2022/11/18 04:02:22;;;;;;;40.77;22.73;;;;;;;-1.09;100.00;99778.89;5113467;55;1141004;-79
2022/11/18 04:07:57;;;;;;;41.83;21.10;;;;;;;-1.14;100.00;99784.71;5058891;56;1141039;-79
2022/11/18 04:13:10;;;;;;;52.50;27.17;;;;;;;-1.14;100.00;99774.33;5074249;56;1140883;-79
2022/11/18 04:18:16;;;;;;;46.88;24.67;;;;;;;-1.13;100.00;99769.98;5120534;56;1141055;-81
2022/11/18 04:23:22;;;;;;;36.87;18.23;;;;;;;-1.13;100.00;99777.32;5126020;56;1141157;-81
2022/11/18 04:28:28;;;;;;;40.35;20.32;;;;;;;-1.12;100.00;99756.95;5125671;56;1140991;-80
2022/11/18 04:33:33;;;;;;;35.17;18.87;;;;;;;-1.17;100.00;99767.13;5126041;56;1141232;-81
2022/11/18 04:38:39;;;;;;;25.63;14.23;;;;;;;-1.18;100.00;99770.63;5126193;56;1143739;-81
2022/11/18 04:43:45;;;;;;;30.60;16.10;;;;;;;-1.20;100.00;99756.42;5124208;56;1141007;-81
2022/11/18 04:48:50;;;;;;;34.53;16.43;;;;;;;-1.22;100.00;99767.30;5045677;56;1141089;-81
2022/11/18 04:53:56;;;;;;;38.90;20.57;;;;;;;-1.30;100.00;99764.20;5077827;55;1140921;-79
2022/11/18 04:59:04;;;;;;;36.07;19.53;;;;;;;-1.27;100.00;99767.13;5105738;55;1141064;-80
2022/11/18 05:04:16;;;;;;;31.37;15.07;;;;;;;-1.24;100.00;99765.71;5062525;56;1141212;-80
2022/11/18 05:09:22;;;;;;;31.60;16.90;;;;;;;-1.35;100.00;99768.72;4988329;57;1141013;-80
2022/11/18 05:14:29;;;;;;;36.27;17.27;;;;;;;-1.34;100.00;99773.01;5031454;56;1140879;-81
2022/11/18 05:19:36;;;;;;;31.47;16.53;;;;;;;-1.35;100.00;99779.55;5057428;55;1140898;-81
2022/11/18 05:24:42;;;;;;;31.53;16.20;;;;;;;-1.36;100.00;99774.81;5056541;55;1140979;-67
2022/11/18 05:29:47;;;;;;;28.10;13.78;;;;;;;-1.36;100.00;99777.86;5057034;56;1140933;-67
2022/11/18 05:34:53;;;;;;;28.37;16.07;;;;;;;-1.34;100.00;99781.23;5056412;56;1140736;-68
2022/11/18 05:39:59;;;;;;;29.07;16.77;;;;;;;-1.34;100.00;99789.02;5051018;56;1140946;-69
2022/11/18 05:45:05;;;;;;;19.60;10.57;;;;;;;-1.29;100.00;99795.72;5081787;56;1141001;-69
2022/11/18 05:50:11;;;;;;;21.97;11.90;;;;;;;-1.27;100.00;99796.51;5143242;56;1140966;-68
2022/11/18 05:55:19;;;;;;;14.15;8.25;;;;;;;-1.27;100.00;99801.70;5131635;56;1140831;-70
2022/11/18 06:00:26;;;;;;;22.07;11.67;;;;;;;-1.26;100.00;99801.23;5126691;56;1138889;-70
2022/11/18 06:05:31;;;;;;;22.70;10.97;;;;;;;-1.24;100.00;99811.11;5124352;56;1140972;-68
2022/11/18 06:10:39;;;;;;;22.17;11.93;;;;;;;-1.34;100.00;99808.02;5117189;56;1141217;-65
2022/11/18 06:15:46;;;;;;;17.03;10.63;;;;;;;-1.27;100.00;99822.90;5031152;56;1140879;-68
2022/11/18 06:20:55;;;;;;;13.97;10.33;;;;;;;-1.27;100.00;99834.57;5096342;56;1140866;-69
2022/11/18 06:26:02;;;;;;;10.13;6.57;;;;;;;-1.26;100.00;99837.56;5095663;56;1140827;-70
2022/11/18 06:31:07;;;;;;;12.17;8.13;;;;;;;-1.24;100.00;99850.02;5131877;55;1138821;-68
2022/11/18 06:36:13;;;;;;;21.73;8.87;;;;;;;-1.24;100.00;99857.35;5131648;56;1138990;-69
2022/11/18 06:41:19;;;;;;;9.13;7.17;;;;;;;-1.22;100.00;99859.41;5019122;55;1138966;-67
2022/11/18 06:51:50;;;;;;;8.90;6.37;;;;;;;-1.18;100.00;99881.73;5041747;56;1136889;-69
2022/11/18 06:56:55;;;;;;;10.20;6.47;;;;;;;-1.20;100.00;99883.54;5049467;56;1136849;-70
2022/11/18 07:02:02;;;;;;;6.40;5.40;;;;;;;-1.20;100.00;99889.18;5142286;56;1138971;-69
2022/11/18 07:07:10;;;;;;;8.63;5.07;;;;;;;-1.26;100.00;99898.07;5142435;56;1136820;-67
2022/11/18 07:12:16;;;;;;;11.07;5.17;;;;;;;-1.34;100.00;99909.17;5142810;56;1136847;-67
2022/11/18 07:17:21;;;;;;;4.40;3.20;;;;;;;-1.26;100.00;99919.27;5151817;55;1139036;-70
2022/11/18 07:22:27;;;;;;;6.20;3.83;;;;;;;-1.28;100.00;99923.22;5144078;55;1136777;-67
2022/11/18 07:27:33;;;;;;;18.25;4.08;;;;;;;-1.28;100.00;99931.45;5144254;55;1136943;-67
2022/11/18 07:32:39;;;;;;;3.63;2.73;;;;;;;-1.21;100.00;99931.59;5154327;56;1138818;-67
2022/11/18 07:37:45;;;;;;;4.57;3.00;;;;;;;-1.21;100.00;99944.56;5213654;55;1136932;-69
2022/11/18 07:42:50;;;;;;;3.33;2.20;;;;;;;-1.20;100.00;99944.95;5212332;55;1136627;-67
2022/11/18 07:48:02;;;;;;;2.90;2.50;;;;;;;-1.16;100.00;99942.64;5170029;55;1136920;-69
2022/11/18 07:53:07;;;;;;;2.85;2.65;;;;;;;-1.09;100.00;99951.45;5169962;55;1136653;-67
2022/11/18 07:58:13;;;;;;;6.55;3.27;;;;;;;-1.06;100.00;99962.13;5162871;55;1137058;-70
2022/11/18 08:03:19;;;;;;;3.30;3.00;;;;;;;-1.04;100.00;99955.59;5141910;55;1136885;-69
2022/11/18 08:08:24;;;;;;;7.70;3.80;;;;;;;-1.02;100.00;99958.52;5131753;55;1136965;-67
2022/11/18 08:13:30;;;;;;;5.43;2.73;;;;;;;-1.01;100.00;99955.02;5101575;56;1136887;-66
2022/11/18 08:18:36;;;;;;;10.93;2.60;;;;;;;-0.94;100.00;99956.48;5057733;57;1137433;-70
2022/11/18 08:23:52;;;;;;;8.07;3.60;;;;;;;-0.93;100.00;99959.47;5057351;57;1139071;-68
2022/11/18 08:28:58;;;;;;;4.53;2.50;;;;;;;-0.91;100.00;99960.23;5053928;57;1136789;-67
2022/11/18 08:34:07;;;;;;;4.27;2.97;;;;;;;-0.84;100.00;99960.39;5057978;57;1137078;-71
2022/11/18 08:39:13;;;;;;;3.63;2.53;;;;;;;-0.79;100.00;99962.36;5063339;56;1137036;-68
2022/11/18 08:44:20;;;;;;;11.27;4.43;;;;;;;-0.75;99.63;99968.25;5117897;56;1136789;-65
2022/11/18 08:49:25;;;;;;;4.43;3.17;;;;;;;-0.73;100.00;99958.66;5113904;55;1136927;-67
2022/11/18 08:54:31;;;;;;;3.50;2.37;;;;;;;-0.60;100.00;99958.55;5059801;56;1136976;-69
2022/11/18 08:59:37;;;;;;;4.47;2.90;;;;;;;-0.55;100.00;99959.21;5064395;55;1136952;-69
2022/11/18 09:04:43;;;;;;;2.70;1.93;;;;;;;-0.52;100.00;99957.80;5075590;56;1136963;-66
2022/11/18 09:09:49;;;;;;;5.70;3.17;;;;;;;-0.46;100.00;99958.81;5054157;56;1136794;-69
2022/11/18 09:14:54;;;;;;;6.57;3.40;;;;;;;-0.42;100.00;99968.19;5077599;56;1136925;-68
2022/11/18 09:20:00;;;;;;;4.20;3.67;;;;;;;-0.44;100.00;99971.30;5080695;56;1136918;-68
2022/11/18 09:25:07;;;;;;;3.60;3.07;;;;;;;-0.41;100.00;99971.63;5088587;55;1137074;-66
2022/11/18 09:30:13;;;;;;;7.92;4.33;;;;;;;-0.38;100.00;99967.16;5056524;56;1136898;-68
2022/11/18 09:35:19;;;;;;;9.85;3.83;;;;;;;-0.38;100.00;99973.65;5112805;55;1136854;-69
2022/11/18 09:40:24;;;;;;;8.87;3.47;;;;;;;-0.32;100.00;99971.27;5133168;56;1243509;-67
2022/11/18 09:45:38;;;;;;;8.35;5.17;;;;;;;-0.22;100.00;99966.06;5130416;56;1136816;-67
2022/11/18 09:50:44;;;;;;;18.07;7.60;;;;;;;-0.14;100.00;99961.82;5133410;56;1136627;-67
2022/11/18 09:55:52;;;;;;;19.80;7.17;;;;;;;-0.02;100.00;99963.92;5127176;56;1138854;-68
2022/11/18 10:00:58;;;;;;;13.83;6.17;;;;;;;0.04;100.00;99962.33;5065335;55;1138890;-67
2022/11/18 10:06:26;;;;;;;11.27;4.77;;;;;;;0.05;100.00;99954.92;5095066;55;1136725;-67
2022/11/18 10:12:14;;;;;;;9.27;5.27;;;;;;;0.09;100.00;99960.84;5125506;56;1137002;-69
2022/11/18 10:17:45;;;;;;;21.23;6.47;;;;;;;0.08;100.00;99953.50;5136706;56;1134776;-68
2022/11/18 10:23:22;;;;;;;7.20;5.33;;;;;;;0.14;100.00;99961.05;5120730;56;1136839;-69
2022/11/18 10:28:31;;;;;;;8.63;5.20;;;;;;;0.21;100.00;99961.14;5140958;56;1135005;-69
2022/11/18 10:33:36;;;;;;;11.87;5.53;;;;;;;0.28;100.00;99963.03;5139465;56;1134779;-71
2022/11/18 10:38:42;;;;;;;6.80;4.80;;;;;;;0.28;100.00;99965.18;5095874;56;1136839;-67
2022/11/18 10:43:56;;;;;;;5.27;3.50;;;;;;;0.31;100.00;99959.81;5077903;56;1134705;-67
2022/11/18 10:49:16;;;;;;;9.60;5.78;;;;;;;0.35;100.00;99961.83;5055386;56;1134691;-70
2022/11/18 10:54:24;;;;;;;13.80;6.40;;;;;;;0.58;100.00;99954.30;5087412;55;1134750;-68
2022/11/18 10:59:52;;;;;;;10.63;6.13;;;;;;;0.83;100.00;99945.73;4909051;57;1136785;-68
2022/11/18 11:05:01;;;;;;;12.70;6.07;;;;;;;1.09;100.00;99939.28;4963493;56;1137002;-67
2022/11/18 11:10:16;;;;;;;21.77;8.73;;;;;;;1.19;100.00;99942.31;5016426;56;1137009;-67
2022/11/18 11:15:41;;;;;;;11.00;5.55;;;;;;;1.13;100.00;99953.01;4980587;57;1136941;-67
2022/11/18 11:20:46;;;;;;;9.73;5.07;;;;;;;0.96;100.00;99949.91;5041833;56;1136713;-69
2022/11/18 11:26:03;;;;;;;9.20;5.67;;;;;;;1.14;100.00;99952.09;5140392;55;1134837;-68
2022/11/18 11:31:36;;;;;;;12.30;5.97;;;;;;;1.45;100.00;99949.69;5126885;56;1134838;-70
2022/11/18 11:37:15;;;;;;;10.72;5.87;;;;;;;1.78;100.00;99943.25;5121896;55;1137702;-70
2022/11/18 11:42:40;;;;;;;8.13;4.27;;;;;;;2.07;100.00;99949.13;5101415;55;1136724;-71
2022/11/18 11:48:20;;;;;;;8.30;4.05;;;;;;;2.07;99.13;99949.58;5115290;55;1232702;-69
2022/11/18 11:54:02;;;;;;;7.10;4.37;;;;;;;1.93;97.70;99955.97;5119122;55;1132646;-70
2022/11/18 11:59:40;;;;;;;17.33;6.60;;;;;;;1.76;98.04;99955.06;5123995;55;1132587;-70
2022/11/18 12:05:02;;;;;;;14.23;5.10;;;;;;;1.62;96.77;99964.49;5131799;55;1134723;-67
2022/11/18 12:10:46;;;;;;;8.03;4.50;;;;;;;1.50;97.77;99954.23;5148968;55;1134773;-68
2022/11/18 12:16:28;;;;;;;8.15;4.53;;;;;;;1.51;96.10;99955.91;5186583;55;1132699;-71
2022/11/18 12:21:50;;;;;;;8.00;3.40;;;;;;;2.15;96.35;99957.84;5075523;55;1132988;-78
2022/11/18 12:26:57;;;;;;;6.23;4.07;;;;;;;2.74;95.23;99957.77;5169713;55;1132547;-82
2022/11/18 12:32:24;;;;;;;96.57;37.20;;;;;;;3.16;93.65;99960.61;5209417;55;1132589;-81
2022/11/18 12:37:34;;;;;;;7.70;4.43;;;;;;;3.78;89.58;99953.55;5202955;55;1136783;-81
2022/11/18 12:48:37;;;;;;;17.75;5.28;;;;;;;3.42;84.74;99952.59;5165181;55;1136978;-80
2022/11/18 12:53:50;;;;;;;15.20;4.20;;;;;;;2.76;87.03;99959.80;5122163;55;1134880;-81
2022/11/18 12:59:02;;;;;;;9.93;4.87;;;;;;;2.26;85.58;99959.91;5059218;56;1134734;-82
2022/11/18 13:04:14;;;;;;;8.93;4.50;;;;;;;1.89;86.14;99967.47;5154831;54;1132981;-82
2022/11/18 13:09:26;;;;;;;8.13;4.20;;;;;;;1.72;88.79;99968.31;5127910;55;1132798;-82
2022/11/18 13:20:04;;;;;;;24.47;10.80;;;;;;;1.62;90.85;99969.70;5158078;55;1134652;-81
2022/11/18 13:25:24;;;;;;;12.90;4.20;;;;;;;1.63;91.32;99974.84;5136440;55;1136755;-82
2022/11/18 13:30:33;;;;;;;7.47;3.63;;;;;;;1.66;91.48;99973.86;5086240;55;1134650;-83
2022/11/18 13:35:41;;;;;;;12.63;3.07;;;;;;;1.58;90.52;99980.73;5155082;55;1132515;-81
2022/11/18 13:46:18;;;;;;;6.70;3.40;;;;;;;1.45;91.24;100000.50;5154903;55;1134642;-82
2022/11/18 13:51:25;;;;;;;8.75;3.72;;;;;;;1.45;91.34;100007.02;5080381;54;1134615;-82
2022/11/18 13:56:31;;;;;;;3.93;2.40;;;;;;;1.40;91.08;100010.29;5090586;55;1134613;-82
2022/11/18 14:01:37;;;;;;;9.77;3.97;;;;;;;1.32;89.89;100006.77;5126101;54;1134655;-82
2022/11/18 14:06:43;;;;;;;10.90;4.00;;;;;;;1.26;90.69;100017.92;5099862;54;1134622;-83
2022/11/18 14:12:14;;;;;;;6.67;3.30;;;;;;;1.24;90.57;100011.94;5104580;56;1136747;-82
2022/11/18 14:17:25;;;;;;;11.88;4.30;;;;;;;1.22;90.96;100015.91;5110130;55;1134616;-82
2022/11/18 14:22:33;;;;;;;19.17;5.23;;;;;;;1.14;91.15;100008.94;5107529;56;1136619;-81
2022/11/18 14:27:45;;;;;;;12.37;4.07;;;;;;;1.16;91.78;100016.22;5104466;56;1136772;-82
2022/11/18 14:33:19;;;;;;;23.57;6.90;;;;;;;1.15;91.35;100013.23;5117497;56;1136620;-82
2022/11/18 14:38:48;;;;;;;15.53;5.10;;;;;;;1.09;91.48;100017.86;5083649;56;1136919;-82
2022/11/18 14:43:54;;;;;;;13.18;5.55;;;;;;;1.04;91.74;100022.01;5149980;56;1136943;-83
2022/11/18 14:49:01;;;;;;;11.07;4.83;;;;;;;0.98;91.81;100033.99;5025332;57;1136944;-81
2022/11/18 14:54:08;;;;;;;13.90;4.73;;;;;;;0.92;92.02;100043.38;5041339;56;1137088;-82
2022/11/18 14:59:17;;;;;;;24.30;9.13;;;;;;;0.85;92.12;100043.28;4910091;57;1136876;-83
2022/11/18 15:04:24;;;;;;;30.20;11.73;;;;;;;0.76;92.16;100056.73;5047897;56;1136675;-76
2022/11/18 15:09:29;;;;;;;49.13;19.70;;;;;;;0.66;92.35;100065.38;5044161;56;1138772;-79
2022/11/18 15:14:36;;;;;;;41.80;17.07;;;;;;;0.58;92.61;100067.03;4973803;56;1139245;-79
2022/11/18 15:19:41;;;;;;;48.87;23.13;;;;;;;0.56;93.25;100070.61;4936260;56;1138814;-79
2022/11/18 15:24:47;;;;;;;80.83;30.75;;;;;;;0.50;92.95;100074.77;5153202;55;1138987;-80
2022/11/18 15:29:52;;;;;;;71.57;31.17;;;;;;;0.45;93.21;100076.29;5149649;56;1140519;-79
2022/11/18 15:34:58;;;;;;;45.43;17.60;;;;;;;0.45;93.66;100072.84;5143692;56;1138832;-78
2022/11/18 15:40:04;;;;;;;64.17;23.60;;;;;;;0.29;92.97;100078.70;5134473;56;1138824;-80
2022/11/18 15:45:10;;;;;;;36.20;14.40;;;;;;;0.21;93.61;100078.16;4979364;57;1138820;-78
2022/11/18 15:50:16;;;;;;;30.27;10.33;;;;;;;0.22;94.05;100079.86;5101015;55;1138784;-79
2022/11/18 15:55:21;;;;;;;32.40;11.30;;;;;;;0.22;94.07;100087.66;5183444;55;1139007;-80
2022/11/18 16:00:27;;;;;;;45.43;14.73;;;;;;;0.22;94.19;100088.11;5224338;55;1138871;-80
2022/11/18 16:05:33;;;;;;;60.40;20.67;;;;;;;0.23;94.53;100095.01;5196991;55;1139028;-78
2022/11/18 16:16:02;;;;;;;66.60;26.13;;;;;;;0.30;95.35;100106.86;5138083;55;1138987;-79
2022/11/18 16:21:08;;;;;;;55.00;21.50;;;;;;;0.37;96.34;100121.73;5104301;55;1138925;-79
2022/11/18 16:26:14;;;;;;;87.07;31.63;;;;;;;0.37;96.34;100121.73;5054622;55;1138917;-80
2022/11/18 16:36:50;;;;;;;56.75;20.88;;;;;;;0.34;95.78;100133.11;5042389;55;1139060;-81
2022/11/18 16:42:01;;;;;;;48.40;19.03;;;;;;;0.33;95.91;100137.45;5027720;55;1138674;-81
2022/11/18 16:47:08;;;;;;;47.20;17.30;;;;;;;0.35;96.64;100142.15;5105970;54;1139045;-82
2022/11/18 16:52:13;;;;;;;95.20;43.40;;;;;;;0.34;96.59;100143.05;5117891;55;1138671;-79
2022/11/18 16:57:21;;;;;;;47.30;19.20;;;;;;;0.37;96.84;100149.05;5132223;56;1138699;-79
2022/11/18 17:02:27;;;;;;;33.77;15.67;;;;;;;0.31;96.54;100153.58;5139805;55;1138665;-82
2022/11/18 17:07:32;;;;;;;101.53;38.67;;;;;;;0.26;97.06;100154.25;5134431;55;1138916;-81
2022/11/18 17:12:38;;;;;;;45.83;19.53;;;;;;;0.29;97.28;100155.42;5134252;55;1140928;-81
2022/11/18 17:17:43;;;;;;;43.83;17.03;;;;;;;0.33;97.70;100158.27;5157978;55;1138758;-81
2022/11/18 17:22:51;;;;;;;34.03;14.63;;;;;;;0.38;97.83;100155.94;5116969;55;1138729;-81
2022/11/18 17:27:57;;;;;;;35.13;13.40;;;;;;;0.39;97.74;100161.53;5113180;56;1139077;-81
2022/11/18 17:33:03;;;;;;;47.37;18.40;;;;;;;0.38;97.61;100168.48;5112240;56;1138957;-81
2022/11/18 17:38:08;;;;;;;45.73;17.17;;;;;;;0.41;98.13;100174.88;5064677;56;1138900;-81
2022/11/18 17:43:15;;;;;;;35.87;15.37;;;;;;;0.44;98.24;100177.36;5038616;56;1138885;-81
2022/11/18 17:48:22;;;;;;;32.33;14.63;;;;;;;0.44;98.33;100181.26;5038441;56;1150769;-81
2022/11/18 17:53:28;;;;;;;33.23;12.87;;;;;;;0.42;98.07;100183.52;5085914;56;1138977;-81
2022/11/18 17:58:34;;;;;;;35.63;15.70;;;;;;;0.34;98.26;100183.37;5111384;56;1138739;-81
2022/11/18 18:03:40;;;;;;;24.20;10.00;;;;;;;0.34;98.39;100185.13;5114173;56;1138848;-81
2022/11/18 18:08:46;;;;;;;21.83;9.30;;;;;;;0.32;98.09;100190.84;5117894;56;1138884;-82
2022/11/18 18:14:12;;;;;;;23.62;9.76;;;;;;;0.29;98.26;100195.73;5120380;55;1136722;-81
2022/11/18 18:19:18;;;;;;;;;;;;;;;0.27;98.67;100198.85;5107548;55;1136946;-82
2022/11/18 18:24:24;;;;;;;27.60;10.70;;;;;;;0.26;98.68;100199.76;5126526;56;972056;-81
2022/11/18 18:29:29;;;;;;;20.93;10.87;;;;;;;0.29;98.95;100200.94;5079789;55;1136922;-81
2022/11/18 18:34:35;;;;;;;21.30;9.03;;;;;;;0.29;98.91;100210.05;5083422;56;1139070;-82
2022/11/18 18:39:41;;;;;;;25.10;11.10;;;;;;;0.31;98.98;100219.91;5061965;56;1136942;-81
2022/11/18 18:50:11;;;;;;;;;;;;;;;0.24;98.82;100231.48;5064909;55;1138950;-81
2022/11/18 18:55:17;;;;;;;15.03;7.80;;;;;;;0.20;98.59;100228.59;5164810;55;971993;-78
2022/11/18 19:00:22;;;;;;;18.80;7.50;;;;;;;0.16;98.42;100238.72;5195326;55;1134667;-78
2022/11/18 19:05:31;;;;;;;22.73;9.73;;;;;;;0.08;98.42;100237.34;5206608;55;1136706;-81
2022/11/18 19:10:40;;;;;;;19.10;8.57;;;;;;;0.02;98.61;100245.37;5208505;55;1136682;-81
2022/11/18 19:15:45;;;;;;;15.23;7.60;;;;;;;-0.01;98.92;100238.56;5212670;55;1136830;-81
2022/11/18 19:20:51;;;;;;;24.60;10.60;;;;;;;-0.02;99.02;100243.36;5212435;55;1138986;-81
2022/11/18 19:26:01;;;;;;;29.65;10.95;;;;;;;0.00;99.48;100251.95;5208112;55;1140952;-81
2022/11/18 19:31:07;;;;;;;32.97;11.00;;;;;;;-0.03;99.40;100241.22;5211596;55;1138779;-81
2022/11/18 19:36:13;;;;;;;21.77;9.30;;;;;;;-0.03;99.62;100245.56;5143701;55;1141037;-81
2022/11/18 19:41:18;;;;;;;27.93;10.20;;;;;;;-0.05;99.63;100249.52;5063379;55;1138942;-81
2022/11/18 19:46:24;;;;;;;24.03;10.17;;;;;;;-0.03;99.45;100248.16;5037890;55;1140902;-81
2022/11/18 19:51:30;;;;;;;42.07;13.70;;;;;;;-0.03;99.68;100245.56;5042546;55;1141270;-80
2022/11/18 19:56:36;;;;;;;42.50;12.87;;;;;;;-0.04;99.73;100254.27;5064437;55;1141009;-81
2022/11/18 20:01:41;;;;;;;53.73;17.43;;;;;;;-0.05;99.58;100257.32;5068660;56;1140908;-81
2022/11/18 20:06:48;;;;;;;40.37;15.13;;;;;;;-0.08;99.50;100257.88;5030447;56;1140946;-81
2022/11/18 20:11:54;;;;;;;23.07;10.48;;;;;;;-0.06;99.96;100260.83;5022300;56;1141159;-81
2022/11/18 20:17:00;;;;;;;38.13;14.03;;;;;;;-0.01;100.00;100264.56;5014319;56;1141028;-78
2022/11/18 20:22:06;;;;;;;24.18;10.08;;;;;;;0.03;100.00;100270.01;5015238;55;1143071;-81
2022/11/18 20:27:12;;;;;;;20.90;8.90;;;;;;;0.03;99.78;100275.66;5128748;54;1141402;-81
2022/11/18 20:32:18;;;;;;;29.83;11.57;;;;;;;0.02;99.45;100283.06;5059773;55;1136919;-80
2022/11/18 20:37:24;;;;;;;22.67;9.53;;;;;;;-0.04;99.71;100278.97;5041832;56;1138864;-79
2022/11/18 20:47:53;;;;;;;29.72;11.70;;;;;;;-0.01;99.71;100285.35;5031129;55;1140944;-77
2022/11/18 20:52:58;;;;;;;34.70;14.63;;;;;;;-0.03;99.79;100287.16;5060177;55;1141049;-81
2022/11/18 20:58:04;;;;;;;34.48;14.03;;;;;;;-0.05;99.81;100297.61;5049635;56;1141530;-79
2022/11/18 21:03:14;;;;;;;43.83;17.60;;;;;;;-0.10;99.45;100301.28;5016192;56;1141062;-79
2022/11/18 21:08:19;;;;;;;32.80;14.77;;;;;;;-0.13;99.57;100307.88;5091234;56;1140819;-79
2022/11/18 21:18:48;;;;;;;37.60;21.95;;;;;;;-0.15;99.65;100308.39;5139244;56;1140942;-78
2022/11/18 21:23:57;;;;;;;22.20;9.27;;;;;;;-0.20;99.16;100316.38;4903928;57;1148137;-77
2022/11/18 21:29:06;;;;;;;20.93;9.83;;;;;;;-0.26;98.72;100319.64;4978849;57;1138851;-79
2022/11/18 21:34:12;;;;;;;34.53;11.90;;;;;;;-0.35;98.76;100324.73;4978850;57;1138666;-80
2022/11/18 21:39:18;;;;;;;44.73;13.77;;;;;;;-0.42;98.33;100333.62;5033915;56;1141136;-79
2022/11/18 21:44:26;;;;;;;40.60;11.93;;;;;;;-0.52;98.33;100335.72;4982462;57;1140878;-80
2022/11/18 21:49:32;;;;;;;46.37;14.63;;;;;;;-0.60;98.16;100331.22;4974762;57;1141145;-79
2022/11/18 21:54:38;;;;;;;38.73;14.93;;;;;;;-0.71;98.42;100340.70;5095886;56;1141153;-80
2022/11/18 21:59:44;;;;;;;35.70;16.40;;;;;;;-0.68;98.84;100336.30;5001501;57;1141007;-79
2022/11/18 22:04:53;;;;;;;44.83;16.77;;;;;;;-0.73;98.52;100336.45;5005744;56;1140978;-80
2022/11/18 22:09:59;;;;;;;33.43;15.37;;;;;;;-0.77;98.60;100335.73;5118514;56;1140888;-80
2022/11/18 22:15:05;;;;;;;50.90;21.82;;;;;;;-0.80;98.59;100337.58;5062875;57;1141037;-80
2022/11/18 22:20:12;;;;;;;59.70;23.47;;;;;;;-0.79;98.77;100327.59;5046796;57;1141071;-80
2022/11/18 22:25:17;;;;;;;68.30;26.07;;;;;;;-0.80;99.05;100335.83;5046659;57;1141068;-80
2022/11/18 22:30:23;;;;;;;59.43;24.63;;;;;;;-0.76;99.06;100339.99;5047834;56;1140909;-79
2022/11/18 22:35:29;;;;;;;60.97;22.47;;;;;;;-0.81;98.61;100339.77;5105803;55;1140992;-80
2022/11/18 22:40:35;;;;;;;59.87;24.63;;;;;;;-0.79;99.00;100340.57;5014158;56;1141072;-79
2022/11/18 22:45:41;;;;;;;56.93;22.00;;;;;;;-0.83;98.54;100341.56;5080527;56;1141081;-79
2022/11/18 22:51:02;;;;;;;34.97;12.80;;;;;;;-0.92;98.18;100345.34;5061765;56;1141102;-79
2022/11/18 22:56:11;;;;;;;100.40;30.97;;;;;;;-0.94;98.77;100354.06;5066418;56;1141048;-79
2022/11/18 23:01:20;;;;;;;89.03;25.43;;;;;;;-0.93;99.02;100351.42;5148706;55;1247766;-80
2022/11/18 23:06:26;;;;;;;107.93;31.90;;;;;;;-0.97;98.28;100352.86;5097045;55;1140979;-78
2022/11/18 23:16:55;;;;;;;32.40;12.25;;;;;;;-1.16;97.85;100355.20;4899661;58;1141216;-79
2022/11/18 23:22:01;;;;;;;47.03;15.53;;;;;;;-1.27;97.91;100358.16;5046916;56;1140820;-79
2022/11/18 23:27:06;;;;;;;50.78;19.70;;;;;;;-1.27;98.45;100364.64;5047138;56;1140879;-79
2022/11/18 23:32:12;;;;;;;301.67;67.30;;;;;;;-1.24;98.64;100371.03;5046922;56;1140901;-78
2022/11/18 23:37:18;;;;;;;238.32;59.93;;;;;;;-1.32;97.70;100372.16;5096773;54;1143102;-79
2022/11/18 23:42:23;;;;;;;323.23;81.00;;;;;;;-1.51;96.88;100366.68;5138784;56;1143167;-79
2022/11/18 23:47:29;;;;;;;230.55;61.65;;;;;;;-1.65;97.58;100377.47;5084959;55;1143045;-79
2022/11/18 23:52:40;;;;;;;136.57;40.73;;;;;;;-1.63;98.40;100370.50;5018010;55;1142999;-79
2022/11/18 23:57:42;;;;;;;102.67;30.10;;;;;;;-1.55;98.83;100373.73;5036811;55;1142951;-78
